sensor_id;sensor_type;location;lat;lon;timestamp;pressure;altitude;pressure_sealevel;temperature;humidity
52735;BME280;38631;47.572;10.704;2022-09-28T00:00:36;91189.25;;;6.57;100.00
52735;BME280;38631;47.572;10.704;2022-09-28T00:03:02;91187.59;;;6.52;100.00
52735;BME280;38631;47.572;10.704;2022-09-28T00:05:28;91179.81;;;6.47;100.00
52735;BME280;38631;47.572;10.704;2022-09-28T00:07:54;91186.31;;;6.58;100.00
52735;BME280;38631;47.572;10.704;2022-09-28T00:10:21;91186.78;;;6.60;100.00
52735;BME280;38631;47.572;10.704;2022-09-28T00:12:48;91195.00;;;6.67;100.00
52735;BME280;38631;47.572;10.704;2022-09-28T00:15:13;91196.53;;;6.68;100.00
52735;BME280;38631;47.572;10.704;2022-09-28T00:17:39;91194.19;;;6.67;100.00
52735;BME280;38631;47.572;10.704;2022-09-28T00:20:04;91193.94;;;6.51;100.00
52735;BME280;38631;47.572;10.704;2022-09-28T00:22:30;91199.38;;;6.55;100.00
52735;BME280;38631;47.572;10.704;2022-09-28T00:24:55;91193.13;;;6.68;100.00
52735;BME280;38631;47.572;10.704;2022-09-28T00:27:21;91190.81;;;6.49;100.00
52735;BME280;38631;47.572;10.704;2022-09-28T00:29:46;91186.19;;;6.37;100.00
52735;BME280;38631;47.572;10.704;2022-09-28T00:32:12;91186.19;;;6.28;100.00
52735;BME280;38631;47.572;10.704;2022-09-28T00:34:42;91182.00;;;6.36;100.00
52735;BME280;38631;47.572;10.704;2022-09-28T00:37:13;91176.56;;;6.50;100.00
52735;BME280;38631;47.572;10.704;2022-09-28T00:39:39;91175.81;;;6.49;100.00
52735;BME280;38631;47.572;10.704;2022-09-28T00:42:18;91169.13;;;6.26;100.00
52735;BME280;38631;47.572;10.704;2022-09-28T00:44:56;91178.28;;;6.37;100.00
52735;BME280;38631;47.572;10.704;2022-09-28T00:47:38;91163.25;;;6.38;100.00
52735;BME280;38631;47.572;10.704;2022-09-28T00:50:26;91159.22;;;6.23;100.00
52735;BME280;38631;47.572;10.704;2022-09-28T00:55:37;91157.06;;;6.25;100.00
52735;BME280;38631;47.572;10.704;2022-09-28T00:58:07;91145.13;;;6.19;100.00
52735;BME280;38631;47.572;10.704;2022-09-28T01:00:34;91137.53;;;6.17;100.00
52735;BME280;38631;47.572;10.704;2022-09-28T01:02:59;91143.09;;;6.33;100.00
52735;BME280;38631;47.572;10.704;2022-09-28T01:05:25;91131.13;;;6.44;100.00
52735;BME280;38631;47.572;10.704;2022-09-28T01:07:52;91136.31;;;6.15;100.00
52735;BME280;38631;47.572;10.704;2022-09-28T01:10:20;91118.28;;;6.25;100.00
52735;BME280;38631;47.572;10.704;2022-09-28T01:12:45;91102.94;;;6.27;100.00
52735;BME280;38631;47.572;10.704;2022-09-28T01:15:11;91088.50;;;6.34;100.00
52735;BME280;38631;47.572;10.704;2022-09-28T01:20:32;91059.66;;;6.28;100.00
52735;BME280;38631;47.572;10.704;2022-09-28T01:23:12;91046.66;;;6.32;100.00
52735;BME280;38631;47.572;10.704;2022-09-28T01:25:53;91056.53;;;6.44;100.00
52735;BME280;38631;47.572;10.704;2022-09-28T01:28:28;91058.25;;;6.40;100.00
52735;BME280;38631;47.572;10.704;2022-09-28T01:33:36;91029.81;;;6.07;100.00
52735;BME280;38631;47.572;10.704;2022-09-28T01:38:45;91028.91;;;5.94;100.00
52735;BME280;38631;47.572;10.704;2022-09-28T01:41:12;91005.19;;;6.03;100.00
52735;BME280;38631;47.572;10.704;2022-09-28T01:43:44;90995.88;;;5.97;100.00
52735;BME280;38631;47.572;10.704;2022-09-28T01:46:13;90983.16;;;5.99;100.00
52735;BME280;38631;47.572;10.704;2022-09-28T01:49:07;90977.31;;;6.02;100.00
52735;BME280;38631;47.572;10.704;2022-09-28T01:52:09;90958.75;;;6.19;100.00
52735;BME280;38631;47.572;10.704;2022-09-28T01:54:42;90960.69;;;6.10;100.00
52735;BME280;38631;47.572;10.704;2022-09-28T01:57:25;90961.56;;;5.67;100.00
52735;BME280;38631;47.572;10.704;2022-09-28T02:00:06;90952.03;;;5.92;100.00
52735;BME280;38631;47.572;10.704;2022-09-28T02:02:54;90934.38;;;5.84;100.00
52735;BME280;38631;47.572;10.704;2022-09-28T02:05:32;90944.75;;;5.98;100.00
52735;BME280;38631;47.572;10.704;2022-09-28T02:08:01;90942.19;;;5.63;100.00
52735;BME280;38631;47.572;10.704;2022-09-28T02:11:06;90936.16;;;5.54;100.00
52735;BME280;38631;47.572;10.704;2022-09-28T02:13:36;90933.78;;;5.87;100.00
52735;BME280;38631;47.572;10.704;2022-09-28T02:18:31;90914.88;;;5.76;100.00
52735;BME280;38631;47.572;10.704;2022-09-28T02:21:08;90909.53;;;5.47;100.00
52735;BME280;38631;47.572;10.704;2022-09-28T02:23:37;90903.91;;;5.74;100.00
52735;BME280;38631;47.572;10.704;2022-09-28T02:26:08;90901.22;;;5.83;100.00
52735;BME280;38631;47.572;10.704;2022-09-28T02:28:35;90900.44;;;6.00;100.00
52735;BME280;38631;47.572;10.704;2022-09-28T02:31:01;90900.72;;;6.07;100.00
52735;BME280;38631;47.572;10.704;2022-09-28T02:33:34;90909.28;;;5.95;100.00
52735;BME280;38631;47.572;10.704;2022-09-28T02:36:01;90906.94;;;6.02;100.00
52735;BME280;38631;47.572;10.704;2022-09-28T02:38:29;90904.28;;;6.02;100.00
52735;BME280;38631;47.572;10.704;2022-09-28T02:41:08;90891.91;;;5.94;100.00
52735;BME280;38631;47.572;10.704;2022-09-28T02:43:52;90883.53;;;5.92;100.00
52735;BME280;38631;47.572;10.704;2022-09-28T02:46:33;90879.84;;;5.84;100.00
52735;BME280;38631;47.572;10.704;2022-09-28T02:54:31;90854.72;;;5.96;100.00
52735;BME280;38631;47.572;10.704;2022-09-28T02:57:36;90849.72;;;6.03;100.00
52735;BME280;38631;47.572;10.704;2022-09-28T03:08:08;90841.59;;;5.78;100.00
52735;BME280;38631;47.572;10.704;2022-09-28T03:10:45;90843.97;;;6.10;100.00
52735;BME280;38631;47.572;10.704;2022-09-28T03:13:14;90843.44;;;6.16;100.00
52735;BME280;38631;47.572;10.704;2022-09-28T03:15:41;90850.41;;;6.21;100.00
52735;BME280;38631;47.572;10.704;2022-09-28T03:18:08;90859.34;;;5.99;100.00
52735;BME280;38631;47.572;10.704;2022-09-28T03:20:34;90859.56;;;5.76;100.00
52735;BME280;38631;47.572;10.704;2022-09-28T03:22:59;90863.28;;;6.22;100.00
52735;BME280;38631;47.572;10.704;2022-09-28T03:25:25;90856.81;;;6.11;100.00
52735;BME280;38631;47.572;10.704;2022-09-28T03:27:51;90862.38;;;5.80;100.00
52735;BME280;38631;47.572;10.704;2022-09-28T03:30:16;90864.13;;;6.05;100.00
52735;BME280;38631;47.572;10.704;2022-09-28T03:32:42;90862.34;;;6.18;100.00
52735;BME280;38631;47.572;10.704;2022-09-28T03:35:08;90873.47;;;6.24;100.00
52735;BME280;38631;47.572;10.704;2022-09-28T03:37:34;90862.66;;;5.87;100.00
52735;BME280;38631;47.572;10.704;2022-09-28T03:39:59;90867.63;;;5.80;100.00
52735;BME280;38631;47.572;10.704;2022-09-28T03:42:24;90859.81;;;6.01;100.00
52735;BME280;38631;47.572;10.704;2022-09-28T03:44:50;90862.22;;;6.15;100.00
52735;BME280;38631;47.572;10.704;2022-09-28T03:47:16;90845.38;;;6.07;100.00
52735;BME280;38631;47.572;10.704;2022-09-28T03:49:42;90838.81;;;6.13;100.00
52735;BME280;38631;47.572;10.704;2022-09-28T03:52:08;90841.41;;;6.22;100.00
52735;BME280;38631;47.572;10.704;2022-09-28T03:54:34;90852.41;;;5.85;100.00
52735;BME280;38631;47.572;10.704;2022-09-28T03:56:59;90848.06;;;5.90;100.00
52735;BME280;38631;47.572;10.704;2022-09-28T03:59:25;90845.44;;;6.19;100.00
52735;BME280;38631;47.572;10.704;2022-09-28T04:01:51;90851.81;;;6.18;100.00
52735;BME280;38631;47.572;10.704;2022-09-28T04:04:16;90848.81;;;5.99;100.00
52735;BME280;38631;47.572;10.704;2022-09-28T04:06:42;90855.09;;;6.15;100.00
52735;BME280;38631;47.572;10.704;2022-09-28T04:09:08;90843.91;;;6.18;100.00
52735;BME280;38631;47.572;10.704;2022-09-28T04:11:33;90840.13;;;6.28;100.00
52735;BME280;38631;47.572;10.704;2022-09-28T04:13:58;90841.28;;;6.18;100.00
52735;BME280;38631;47.572;10.704;2022-09-28T04:16:24;90850.28;;;6.17;100.00
52735;BME280;38631;47.572;10.704;2022-09-28T04:18:50;90838.53;;;6.36;100.00
52735;BME280;38631;47.572;10.704;2022-09-28T04:21:17;90848.34;;;6.26;100.00
52735;BME280;38631;47.572;10.704;2022-09-28T04:23:43;90840.22;;;6.40;100.00
52735;BME280;38631;47.572;10.704;2022-09-28T04:26:18;90841.63;;;6.38;100.00
52735;BME280;38631;47.572;10.704;2022-09-28T04:28:44;90848.03;;;6.28;100.00
52735;BME280;38631;47.572;10.704;2022-09-28T04:31:28;90843.81;;;6.57;100.00
52735;BME280;38631;47.572;10.704;2022-09-28T04:33:57;90853.13;;;6.54;100.00
52735;BME280;38631;47.572;10.704;2022-09-28T04:36:23;90841.13;;;6.65;100.00
52735;BME280;38631;47.572;10.704;2022-09-28T04:38:51;90855.00;;;6.75;100.00
52735;BME280;38631;47.572;10.704;2022-09-28T04:41:16;90856.03;;;6.40;100.00
52735;BME280;38631;47.572;10.704;2022-09-28T04:43:41;90843.03;;;6.56;98.83
52735;BME280;38631;47.572;10.704;2022-09-28T04:46:09;90845.91;;;6.84;94.69
52735;BME280;38631;47.572;10.704;2022-09-28T04:48:36;90838.81;;;6.97;92.44
52735;BME280;38631;47.572;10.704;2022-09-28T04:51:01;90837.22;;;7.05;89.92
52735;BME280;38631;47.572;10.704;2022-09-28T04:53:27;90841.97;;;7.11;90.78
52735;BME280;38631;47.572;10.704;2022-09-28T04:58:20;90840.28;;;7.07;89.33
52735;BME280;38631;47.572;10.704;2022-09-28T05:00:45;90834.25;;;7.06;88.78
52735;BME280;38631;47.572;10.704;2022-09-28T05:03:11;90833.53;;;7.18;89.40
52735;BME280;38631;47.572;10.704;2022-09-28T05:05:44;90835.91;;;7.11;90.11
52735;BME280;38631;47.572;10.704;2022-09-28T05:08:10;90825.09;;;7.04;90.94
52735;BME280;38631;47.572;10.704;2022-09-28T05:10:36;90830.59;;;6.99;91.14
52735;BME280;38631;47.572;10.704;2022-09-28T05:13:07;90817.53;;;7.02;92.78
52735;BME280;38631;47.572;10.704;2022-09-28T05:15:34;90818.97;;;7.00;91.93
52735;BME280;38631;47.572;10.704;2022-09-28T05:17:59;90812.63;;;6.80;94.47
52735;BME280;38631;47.572;10.704;2022-09-28T05:20:25;90810.84;;;6.84;94.03
52735;BME280;38631;47.572;10.704;2022-09-28T05:22:50;90814.41;;;6.88;95.17
52735;BME280;38631;47.572;10.704;2022-09-28T05:25:16;90811.41;;;6.89;94.01
52735;BME280;38631;47.572;10.704;2022-09-28T05:27:42;90806.69;;;6.83;94.64
52735;BME280;38631;47.572;10.704;2022-09-28T05:30:07;90808.41;;;6.79;95.87
52735;BME280;38631;47.572;10.704;2022-09-28T05:32:39;90802.28;;;6.87;94.50
52735;BME280;38631;47.572;10.704;2022-09-28T05:35:04;90794.63;;;6.94;93.05
52735;BME280;38631;47.572;10.704;2022-09-28T05:37:30;90790.25;;;6.98;92.62
52735;BME280;38631;47.572;10.704;2022-09-28T05:39:55;90791.31;;;6.97;92.29
52735;BME280;38631;47.572;10.704;2022-09-28T05:42:21;90803.53;;;7.02;91.40
52735;BME280;38631;47.572;10.704;2022-09-28T05:44:46;90790.34;;;7.02;91.93
52735;BME280;38631;47.572;10.704;2022-09-28T05:47:12;90801.16;;;7.09;90.94
52735;BME280;38631;47.572;10.704;2022-09-28T05:49:37;90795.75;;;7.05;93.10
52735;BME280;38631;47.572;10.704;2022-09-28T05:52:02;90796.75;;;7.01;93.90
52735;BME280;38631;47.572;10.704;2022-09-28T05:54:28;90802.78;;;7.01;94.86
52735;BME280;38631;47.572;10.704;2022-09-28T05:56:53;90796.59;;;6.97;95.06
52735;BME280;38631;47.572;10.704;2022-09-28T05:59:18;90799.66;;;6.87;94.71
52735;BME280;38631;47.572;10.704;2022-09-28T06:01:44;90790.56;;;6.97;94.73
52735;BME280;38631;47.572;10.704;2022-09-28T06:04:09;90784.75;;;7.03;95.01
52735;BME280;38631;47.572;10.704;2022-09-28T06:06:35;90783.34;;;7.06;94.70
52735;BME280;38631;47.572;10.704;2022-09-28T06:09:00;90791.53;;;6.92;94.11
52735;BME280;38631;47.572;10.704;2022-09-28T06:11:26;90790.69;;;7.00;94.82
52735;BME280;38631;47.572;10.704;2022-09-28T06:13:53;90790.69;;;7.00;94.61
52735;BME280;38631;47.572;10.704;2022-09-28T06:16:19;90795.38;;;6.95;94.89
52735;BME280;38631;47.572;10.704;2022-09-28T06:18:45;90784.41;;;6.92;96.08
52735;BME280;38631;47.572;10.704;2022-09-28T06:21:11;90787.81;;;6.93;95.72
52735;BME280;38631;47.572;10.704;2022-09-28T06:23:37;90787.47;;;6.95;95.57
52735;BME280;38631;47.572;10.704;2022-09-28T06:26:02;90782.38;;;7.10;95.58
52735;BME280;38631;47.572;10.704;2022-09-28T06:28:28;90784.75;;;7.03;97.87
52735;BME280;38631;47.572;10.704;2022-09-28T06:30:53;90791.56;;;7.04;93.73
52735;BME280;38631;47.572;10.704;2022-09-28T06:33:18;90794.88;;;7.01;94.51
52735;BME280;38631;47.572;10.704;2022-09-28T06:35:44;90787.63;;;7.10;94.47
52735;BME280;38631;47.572;10.704;2022-09-28T06:38:09;90795.53;;;6.98;95.25
52735;BME280;38631;47.572;10.704;2022-09-28T06:40:35;90793.03;;;7.14;91.09
52735;BME280;38631;47.572;10.704;2022-09-28T06:43:08;90794.69;;;7.19;93.32
52735;BME280;38631;47.572;10.704;2022-09-28T06:45:35;90801.84;;;7.18;95.97
52735;BME280;38631;47.572;10.704;2022-09-28T06:48:01;90814.69;;;7.07;96.19
52735;BME280;38631;47.572;10.704;2022-09-28T06:50:38;90811.88;;;6.91;95.52
52735;BME280;38631;47.572;10.704;2022-09-28T06:53:05;90817.72;;;6.97;96.61
52735;BME280;38631;47.572;10.704;2022-09-28T06:55:31;90830.28;;;7.00;97.25
52735;BME280;38631;47.572;10.704;2022-09-28T06:58:05;90824.59;;;7.10;97.17
52735;BME280;38631;47.572;10.704;2022-09-28T07:00:33;90818.31;;;7.03;97.48
52735;BME280;38631;47.572;10.704;2022-09-28T07:03:01;90820.94;;;7.03;96.22
52735;BME280;38631;47.572;10.704;2022-09-28T07:05:27;90824.22;;;7.00;99.72
52735;BME280;38631;47.572;10.704;2022-09-28T07:07:56;90832.97;;;7.12;99.61
52735;BME280;38631;47.572;10.704;2022-09-28T07:10:23;90833.84;;;7.17;98.72
52735;BME280;38631;47.572;10.704;2022-09-28T07:12:50;90835.59;;;7.12;99.15
52735;BME280;38631;47.572;10.704;2022-09-28T07:15:16;90843.53;;;7.12;100.00
52735;BME280;38631;47.572;10.704;2022-09-28T07:17:41;90851.78;;;7.23;100.00
52735;BME280;38631;47.572;10.704;2022-09-28T07:20:07;90851.34;;;7.21;100.00
52735;BME280;38631;47.572;10.704;2022-09-28T07:22:32;90863.97;;;7.16;100.00
52735;BME280;38631;47.572;10.704;2022-09-28T07:24:58;90872.47;;;7.21;100.00
52735;BME280;38631;47.572;10.704;2022-09-28T07:27:24;90867.19;;;7.21;100.00
52735;BME280;38631;47.572;10.704;2022-09-28T07:29:51;90878.50;;;7.22;100.00
52735;BME280;38631;47.572;10.704;2022-09-28T07:32:18;90880.31;;;7.30;100.00
52735;BME280;38631;47.572;10.704;2022-09-28T07:34:44;90878.72;;;7.17;100.00
52735;BME280;38631;47.572;10.704;2022-09-28T07:37:10;90882.44;;;7.16;100.00
52735;BME280;38631;47.572;10.704;2022-09-28T07:39:37;90885.03;;;7.03;100.00
52735;BME280;38631;47.572;10.704;2022-09-28T07:42:21;90878.06;;;7.20;100.00
52735;BME280;38631;47.572;10.704;2022-09-28T07:44:46;90882.00;;;7.13;100.00
52735;BME280;38631;47.572;10.704;2022-09-28T07:47:12;90888.94;;;7.18;100.00
52735;BME280;38631;47.572;10.704;2022-09-28T07:49:37;90890.38;;;7.16;100.00
52735;BME280;38631;47.572;10.704;2022-09-28T07:52:03;90898.94;;;7.12;100.00
52735;BME280;38631;47.572;10.704;2022-09-28T07:54:28;90896.22;;;7.21;100.00
52735;BME280;38631;47.572;10.704;2022-09-28T07:56:55;90905.16;;;7.29;100.00
52735;BME280;38631;47.572;10.704;2022-09-28T07:59:21;90912.38;;;7.20;100.00
52735;BME280;38631;47.572;10.704;2022-09-28T08:01:46;90914.59;;;7.18;100.00
52735;BME280;38631;47.572;10.704;2022-09-28T08:04:14;90924.13;;;7.10;100.00
52735;BME280;38631;47.572;10.704;2022-09-28T08:06:39;90919.22;;;7.21;100.00
52735;BME280;38631;47.572;10.704;2022-09-28T08:09:05;90911.94;;;7.18;100.00
52735;BME280;38631;47.572;10.704;2022-09-28T08:11:30;90923.72;;;7.20;100.00
52735;BME280;38631;47.572;10.704;2022-09-28T08:13:55;90921.69;;;7.17;100.00
52735;BME280;38631;47.572;10.704;2022-09-28T08:16:22;90931.63;;;7.20;100.00
52735;BME280;38631;47.572;10.704;2022-09-28T08:18:48;90930.53;;;7.21;100.00
52735;BME280;38631;47.572;10.704;2022-09-28T08:21:14;90943.09;;;7.24;100.00
52735;BME280;38631;47.572;10.704;2022-09-28T08:23:58;90929.13;;;7.24;100.00
52735;BME280;38631;47.572;10.704;2022-09-28T08:26:24;90929.88;;;7.24;100.00
52735;BME280;38631;47.572;10.704;2022-09-28T08:28:49;90922.94;;;7.20;100.00
52735;BME280;38631;47.572;10.704;2022-09-28T08:31:15;90919.78;;;7.26;100.00
52735;BME280;38631;47.572;10.704;2022-09-28T08:33:41;90935.31;;;7.28;100.00
52735;BME280;38631;47.572;10.704;2022-09-28T08:36:08;90923.63;;;7.29;100.00
52735;BME280;38631;47.572;10.704;2022-09-28T08:38:34;90935.31;;;7.28;100.00
52735;BME280;38631;47.572;10.704;2022-09-28T08:41:23;90933.13;;;7.30;100.00
52735;BME280;38631;47.572;10.704;2022-09-28T08:46:19;90941.97;;;7.46;100.00
52735;BME280;38631;47.572;10.704;2022-09-28T08:48:51;90938.47;;;7.54;100.00
52735;BME280;38631;47.572;10.704;2022-09-28T08:51:55;90938.81;;;7.53;100.00
52735;BME280;38631;47.572;10.704;2022-09-28T08:54:36;90942.47;;;7.61;100.00
52735;BME280;38631;47.572;10.704;2022-09-28T08:57:16;90949.06;;;7.67;100.00
52735;BME280;38631;47.572;10.704;2022-09-28T08:59:51;90941.41;;;7.74;100.00
52735;BME280;38631;47.572;10.704;2022-09-28T09:02:32;90941.28;;;7.70;100.00
52735;BME280;38631;47.572;10.704;2022-09-28T09:05:02;90934.81;;;7.80;100.00
52735;BME280;38631;47.572;10.704;2022-09-28T09:07:32;90942.75;;;7.80;100.00
52735;BME280;38631;47.572;10.704;2022-09-28T09:15:16;90944.16;;;7.77;100.00
52735;BME280;38631;47.572;10.704;2022-09-28T09:20:24;90932.94;;;7.81;100.00
52735;BME280;38631;47.572;10.704;2022-09-28T09:22:59;90939.09;;;7.85;100.00
52735;BME280;38631;47.572;10.704;2022-09-28T09:28:25;90943.53;;;7.93;100.00
52735;BME280;38631;47.572;10.704;2022-09-28T09:42:03;90947.28;;;7.92;100.00
52735;BME280;38631;47.572;10.704;2022-09-28T09:47:38;90945.34;;;8.13;100.00
52735;BME280;38631;47.572;10.704;2022-09-28T09:52:52;90955.81;;;8.22;100.00
52735;BME280;38631;47.572;10.704;2022-09-28T10:00:51;90959.78;;;8.28;100.00
52735;BME280;38631;47.572;10.704;2022-09-28T10:03:22;90953.94;;;8.35;100.00
52735;BME280;38631;47.572;10.704;2022-09-28T10:06:07;90964.66;;;8.38;100.00
52735;BME280;38631;47.572;10.704;2022-09-28T10:08:39;90964.72;;;8.30;100.00
52735;BME280;38631;47.572;10.704;2022-09-28T10:11:11;90974.53;;;8.29;100.00
52735;BME280;38631;47.572;10.704;2022-09-28T10:13:39;90969.28;;;8.41;100.00
52735;BME280;38631;47.572;10.704;2022-09-28T10:16:05;90975.81;;;8.44;100.00
52735;BME280;38631;47.572;10.704;2022-09-28T10:18:32;90978.66;;;8.51;100.00
52735;BME280;38631;47.572;10.704;2022-09-28T10:20:57;90977.16;;;8.50;100.00
52735;BME280;38631;47.572;10.704;2022-09-28T10:23:26;90970.50;;;8.44;100.00
52735;BME280;38631;47.572;10.704;2022-09-28T10:25:55;90964.56;;;8.47;100.00
52735;BME280;38631;47.572;10.704;2022-09-28T10:28:47;90964.47;;;8.56;100.00
52735;BME280;38631;47.572;10.704;2022-09-28T10:33:59;90954.88;;;8.63;100.00
52735;BME280;38631;47.572;10.704;2022-09-28T10:36:25;90955.63;;;8.76;100.00
52735;BME280;38631;47.572;10.704;2022-09-28T10:38:50;90955.41;;;8.81;100.00
52735;BME280;38631;47.572;10.704;2022-09-28T10:41:17;90945.94;;;8.68;100.00
52735;BME280;38631;47.572;10.704;2022-09-28T10:46:20;90944.16;;;8.84;100.00
52735;BME280;38631;47.572;10.704;2022-09-28T10:51:19;90956.38;;;8.89;100.00
52735;BME280;38631;47.572;10.704;2022-09-28T10:54:01;90947.00;;;8.92;100.00
52735;BME280;38631;47.572;10.704;2022-09-28T10:56:29;90955.63;;;8.89;100.00
52735;BME280;38631;47.572;10.704;2022-09-28T10:58:59;90957.91;;;8.90;100.00
52735;BME280;38631;47.572;10.704;2022-09-28T11:01:29;90950.53;;;8.96;100.00
52735;BME280;38631;47.572;10.704;2022-09-28T11:04:04;90960.69;;;8.81;100.00
52735;BME280;38631;47.572;10.704;2022-09-28T11:06:36;90960.16;;;8.88;100.00
52735;BME280;38631;47.572;10.704;2022-09-28T11:09:06;90959.25;;;8.84;100.00
52735;BME280;38631;47.572;10.704;2022-09-28T11:11:41;90965.44;;;8.88;100.00
52735;BME280;38631;47.572;10.704;2022-09-28T11:14:32;90962.66;;;8.97;100.00
52735;BME280;38631;47.572;10.704;2022-09-28T11:25:24;90979.44;;;9.01;100.00
52735;BME280;38631;47.572;10.704;2022-09-28T11:33:01;90970.31;;;8.74;100.00
52735;BME280;38631;47.572;10.704;2022-09-28T11:35:36;90966.75;;;8.82;100.00
52735;BME280;38631;47.572;10.704;2022-09-28T11:43:50;90950.31;;;8.89;100.00
52735;BME280;38631;47.572;10.704;2022-09-28T11:46:31;90953.88;;;8.80;100.00
52735;BME280;38631;47.572;10.704;2022-09-28T11:49:25;90955.09;;;8.83;100.00
52735;BME280;38631;47.572;10.704;2022-09-28T11:51:53;90942.50;;;8.80;100.00
52735;BME280;38631;47.572;10.704;2022-09-28T11:54:29;90959.91;;;8.93;100.00
52735;BME280;38631;47.572;10.704;2022-09-28T11:57:00;90956.81;;;8.91;100.00
52735;BME280;38631;47.572;10.704;2022-09-28T11:59:31;90949.53;;;9.00;100.00
52735;BME280;38631;47.572;10.704;2022-09-28T12:02:31;90949.97;;;9.02;100.00
52735;BME280;38631;47.572;10.704;2022-09-28T12:05:13;90948.41;;;9.14;100.00
52735;BME280;38631;47.572;10.704;2022-09-28T12:07:45;90965.38;;;9.13;100.00
52735;BME280;38631;47.572;10.704;2022-09-28T12:13:01;90973.22;;;9.09;100.00
52735;BME280;38631;47.572;10.704;2022-09-28T12:15:48;90967.25;;;9.12;100.00
52735;BME280;38631;47.572;10.704;2022-09-28T12:18:22;90963.84;;;9.12;100.00
52735;BME280;38631;47.572;10.704;2022-09-28T12:20:59;90967.63;;;9.11;100.00
52735;BME280;38631;47.572;10.704;2022-09-28T12:23:32;90966.81;;;9.10;100.00
52735;BME280;38631;47.572;10.704;2022-09-28T12:26:02;90964.41;;;8.93;100.00
52735;BME280;38631;47.572;10.704;2022-09-28T12:28:44;90974.91;;;9.01;100.00
52735;BME280;38631;47.572;10.704;2022-09-28T12:31:19;90973.69;;;8.99;100.00
52735;BME280;38631;47.572;10.704;2022-09-28T12:33:48;90974.34;;;9.08;100.00
52735;BME280;38631;47.572;10.704;2022-09-28T12:39:24;90972.34;;;9.17;100.00
52735;BME280;38631;47.572;10.704;2022-09-28T12:50:25;90958.75;;;9.19;99.48
52735;BME280;38631;47.572;10.704;2022-09-28T12:55:25;90954.47;;;9.14;100.00
52735;BME280;38631;47.572;10.704;2022-09-28T12:58:15;90956.44;;;9.17;100.00
52735;BME280;38631;47.572;10.704;2022-09-28T13:06:32;90945.25;;;8.96;100.00
52735;BME280;38631;47.572;10.704;2022-09-28T13:25:16;90953.28;;;8.99;100.00
52735;BME280;38631;47.572;10.704;2022-09-28T13:27:47;90950.19;;;8.85;100.00
52735;BME280;38631;47.572;10.704;2022-09-28T13:30:14;90955.41;;;8.81;100.00
52735;BME280;38631;47.572;10.704;2022-09-28T13:32:44;90954.06;;;8.87;100.00
52735;BME280;38631;47.572;10.704;2022-09-28T13:35:15;90949.88;;;8.86;100.00
52735;BME280;38631;47.572;10.704;2022-09-28T13:37:43;90953.97;;;8.84;98.96
52735;BME280;38631;47.572;10.704;2022-09-28T13:40:09;90956.63;;;8.84;100.00
52735;BME280;38631;47.572;10.704;2022-09-28T13:56:02;90953.31;;;8.75;100.00
52735;BME280;38631;47.572;10.704;2022-09-28T14:01:11;90957.59;;;8.79;100.00
52735;BME280;38631;47.572;10.704;2022-09-28T14:03:58;90959.16;;;8.80;100.00
52735;BME280;38631;47.572;10.704;2022-09-28T14:06:34;90961.69;;;8.77;100.00
52735;BME280;38631;47.572;10.704;2022-09-28T14:16:33;90962.69;;;8.72;100.00
52735;BME280;38631;47.572;10.704;2022-09-28T14:32:39;90991.22;;;8.42;100.00
52735;BME280;38631;47.572;10.704;2022-09-28T14:35:12;90990.84;;;8.31;100.00
52735;BME280;38631;47.572;10.704;2022-09-28T14:37:40;90999.78;;;8.27;100.00
52735;BME280;38631;47.572;10.704;2022-09-28T14:40:31;90989.31;;;8.30;100.00
52735;BME280;38631;47.572;10.704;2022-09-28T14:43:19;90998.47;;;8.33;100.00
52735;BME280;38631;47.572;10.704;2022-09-28T14:45:49;90990.00;;;8.39;100.00
52735;BME280;38631;47.572;10.704;2022-09-28T14:48:18;91002.53;;;8.18;100.00
52735;BME280;38631;47.572;10.704;2022-09-28T14:50:44;90992.81;;;8.22;100.00
52735;BME280;38631;47.572;10.704;2022-09-28T14:53:16;90994.91;;;8.16;100.00
52735;BME280;38631;47.572;10.704;2022-09-28T14:55:49;90990.13;;;7.97;100.00
52735;BME280;38631;47.572;10.704;2022-09-28T14:58:22;90993.25;;;8.12;100.00
52735;BME280;38631;47.572;10.704;2022-09-28T15:01:12;91000.75;;;8.22;100.00
52735;BME280;38631;47.572;10.704;2022-09-28T15:03:42;91006.94;;;8.26;100.00
52735;BME280;38631;47.572;10.704;2022-09-28T15:06:14;90999.44;;;8.16;100.00
52735;BME280;38631;47.572;10.704;2022-09-28T15:08:45;90998.88;;;8.22;100.00
52735;BME280;38631;47.572;10.704;2022-09-28T15:11:19;90999.44;;;8.28;100.00
52735;BME280;38631;47.572;10.704;2022-09-28T15:13:45;91004.94;;;8.23;100.00
52735;BME280;38631;47.572;10.704;2022-09-28T15:16:15;90995.66;;;8.17;100.00
52735;BME280;38631;47.572;10.704;2022-09-28T15:21:22;91004.78;;;8.07;100.00
52735;BME280;38631;47.572;10.704;2022-09-28T15:23:55;91005.78;;;8.15;100.00
52735;BME280;38631;47.572;10.704;2022-09-28T15:26:23;91000.97;;;8.17;100.00
52735;BME280;38631;47.572;10.704;2022-09-28T15:28:51;91004.50;;;8.21;100.00
52735;BME280;38631;47.572;10.704;2022-09-28T15:31:19;91001.84;;;8.21;100.00
52735;BME280;38631;47.572;10.704;2022-09-28T15:33:45;91008.13;;;8.16;100.00
52735;BME280;38631;47.572;10.704;2022-09-28T15:36:33;91009.09;;;8.12;100.00
52735;BME280;38631;47.572;10.704;2022-09-28T15:39:11;91007.31;;;8.04;100.00
52735;BME280;38631;47.572;10.704;2022-09-28T15:41:39;91007.22;;;8.12;100.00
52735;BME280;38631;47.572;10.704;2022-09-28T15:44:30;91016.47;;;8.06;100.00
52735;BME280;38631;47.572;10.704;2022-09-28T15:47:14;91024.72;;;8.05;100.00
52735;BME280;38631;47.572;10.704;2022-09-28T15:49:52;91031.56;;;8.06;100.00
52735;BME280;38631;47.572;10.704;2022-09-28T15:52:45;91034.94;;;7.94;100.00
52735;BME280;38631;47.572;10.704;2022-09-28T15:57:42;91032.19;;;7.90;100.00
52735;BME280;38631;47.572;10.704;2022-09-28T16:08:20;91034.81;;;7.90;100.00
52735;BME280;38631;47.572;10.704;2022-09-28T16:11:02;91039.34;;;8.02;100.00